Wetterdaten: aktuell Montag, 04.05.2026 17:53
Datum Zeit Temperatur Luftfeuchte Luftdruck Regen Wind Richtung Richtung Taupunkt Windchill Windböen
04.05.2026 17:53 22,3 °C 43 % 1008,8 hPa 0,0 l/m² 1,1 km/h (1 Bft) N 360 ° 9,1 °C 22,3 °C 3,2 km/h (1 Bft)
04.05.2026 17:52 22,4 °C 44 % 1008,8 hPa 0,0 l/m² 0,3 km/h (0 Bft) N-NO 16 ° 9,5 °C 22,4 °C 1,6 km/h (1 Bft)
04.05.2026 17:51 22,4 °C 44 % 1008,8 hPa 0,0 l/m² 0,0 km/h (0 Bft) N-NO 16 ° 9,5 °C 22,4 °C 0,0 km/h (0 Bft)
04.05.2026 17:50 22,4 °C 43 % 1008,7 hPa 0,0 l/m² 0,1 km/h (0 Bft) N-NO 16 ° 9,2 °C 22,4 °C 1,6 km/h (1 Bft)
04.05.2026 17:49 22,4 °C 44 % 1008,7 hPa 0,0 l/m² 0,3 km/h (0 Bft) N-NO 16 ° 9,5 °C 22,4 °C 1,6 km/h (1 Bft)
04.05.2026 17:48 22,4 °C 43 % 1008,8 hPa 0,0 l/m² 0,0 km/h (0 Bft) O 88 ° 9,2 °C 22,4 °C 0,0 km/h (0 Bft)
04.05.2026 17:47 22,4 °C 44 % 1008,7 hPa 0,0 l/m² 0,0 km/h (0 Bft) O 79 ° 9,5 °C 22,4 °C 0,0 km/h (0 Bft)
04.05.2026 17:46 22,4 °C 44 % 1008,7 hPa 0,0 l/m² 0,0 km/h (0 Bft) O 79 ° 9,5 °C 22,4 °C 0,0 km/h (0 Bft)
04.05.2026 17:45 22,4 °C 43 % 1008,7 hPa 0,0 l/m² 0,1 km/h (0 Bft) O 79 ° 9,2 °C 22,4 °C 1,6 km/h (1 Bft)
04.05.2026 17:44 22,4 °C 44 % 1008,7 hPa 0,0 l/m² 0,3 km/h (0 Bft) O 79 ° 9,5 °C 22,4 °C 1,6 km/h (1 Bft)
04.05.2026 17:43 22,4 °C 41 % 1008,8 hPa 0,0 l/m² 0,2 km/h (0 Bft) SO 134 ° 8,5 °C 22,4 °C 1,6 km/h (1 Bft)
04.05.2026 17:42 22,4 °C 42 % 1008,7 hPa 0,0 l/m² 0,1 km/h (0 Bft) SO 134 ° 8,9 °C 22,4 °C 1,6 km/h (1 Bft)
04.05.2026 17:41 22,4 °C 41 % 1008,7 hPa 0,0 l/m² 0,0 km/h (0 Bft) SO 134 ° 8,5 °C 22,4 °C 0,0 km/h (0 Bft)
04.05.2026 17:40 22,3 °C 40 % 1008,7 hPa 0,0 l/m² 0,0 km/h (0 Bft) SO 134 ° 8,0 °C 22,3 °C 0,0 km/h (0 Bft)
04.05.2026 17:39 22,4 °C 41 % 1008,7 hPa 0,0 l/m² 0,0 km/h (0 Bft) SO 134 ° 8,5 °C 22,4 °C 0,0 km/h (0 Bft)
04.05.2026 17:38 22,4 °C 40 % 1008,7 hPa 0,0 l/m² 0,3 km/h (0 Bft) SO 134 ° 8,1 °C 22,4 °C 1,6 km/h (1 Bft)
04.05.2026 17:37 22,4 °C 39 % 1008,8 hPa 0,0 l/m² 0,9 km/h (0 Bft) SO 134 ° 7,8 °C 22,4 °C 1,6 km/h (1 Bft)
04.05.2026 17:36 22,4 °C 39 % 1008,8 hPa 0,0 l/m² 0,0 km/h (0 Bft) O-SO 103 ° 7,8 °C 22,4 °C 0,0 km/h (0 Bft)
04.05.2026 17:35 22,5 °C 42 % 1008,7 hPa 0,0 l/m² 0,0 km/h (0 Bft) O-SO 103 ° 8,9 °C 22,5 °C 0,0 km/h (0 Bft)
04.05.2026 17:34 22,6 °C 42 % 1008,8 hPa 0,0 l/m² 0,0 km/h (0 Bft) O-SO 103 ° 9,0 °C 22,6 °C 0,0 km/h (0 Bft)
04.05.2026 17:33 22,6 °C 43 % 1008,8 hPa 0,0 l/m² 0,0 km/h (0 Bft) O-SO 103 ° 9,4 °C 22,6 °C 0,0 km/h (0 Bft)
04.05.2026 17:32 22,7 °C 43 % 1008,8 hPa 0,0 l/m² 0,0 km/h (0 Bft) O-SO 103 ° 9,5 °C 22,7 °C 0,0 km/h (0 Bft)
04.05.2026 17:31 22,8 °C 40 % 1008,8 hPa 0,0 l/m² 0,3 km/h (0 Bft) O-SO 103 ° 8,5 °C 22,8 °C 1,6 km/h (1 Bft)
04.05.2026 17:30 22,9 °C 40 % 1008,8 hPa 0,0 l/m² 0,1 km/h (0 Bft) O 99 ° 8,6 °C 22,9 °C 1,6 km/h (1 Bft)
04.05.2026 17:29 23,1 °C 41 % 1008,8 hPa 0,0 l/m² 0,3 km/h (0 Bft) O 99 ° 9,1 °C 23,1 °C 1,6 km/h (1 Bft)
04.05.2026 17:28 23,1 °C 41 % 1008,8 hPa 0,0 l/m² 0,1 km/h (0 Bft) O 99 ° 9,1 °C 23,1 °C 1,6 km/h (1 Bft)
04.05.2026 17:27 23,2 °C 39 % 1008,8 hPa 0,0 l/m² 0,1 km/h (0 Bft) O 99 ° 8,5 °C 23,2 °C 1,6 km/h (1 Bft)
04.05.2026 17:26 23,2 °C 40 % 1008,8 hPa 0,0 l/m² 2,2 km/h (1 Bft) O 99 ° 8,8 °C 23,2 °C 4,8 km/h (1 Bft)
04.05.2026 17:25 23,3 °C 40 % 1008,8 hPa 0,0 l/m² 1,0 km/h (0 Bft) O-NO 65 ° 8,9 °C 23,3 °C 3,2 km/h (1 Bft)
04.05.2026 17:24 23,4 °C 42 % 1008,8 hPa 0,0 l/m² 0,0 km/h (0 Bft) NO 38 ° 9,7 °C 23,4 °C 0,0 km/h (0 Bft)
04.05.2026 17:23 23,5 °C 38 % 1008,7 hPa 0,0 l/m² 0,0 km/h (0 Bft) N-NW 344 ° 8,4 °C 23,5 °C 0,0 km/h (0 Bft)
04.05.2026 17:22 23,6 °C 38 % 1008,7 hPa 0,0 l/m² 0,1 km/h (0 Bft) N-NW 344 ° 8,4 °C 23,6 °C 1,6 km/h (1 Bft)
04.05.2026 17:21 23,6 °C 37 % 1008,8 hPa 0,0 l/m² 1,4 km/h (1 Bft) N-NW 346 ° 8,0 °C 23,6 °C 3,2 km/h (1 Bft)
04.05.2026 17:20 23,6 °C 38 % 1008,8 hPa 0,0 l/m² 1,8 km/h (1 Bft) N 349 ° 8,4 °C 23,6 °C 3,2 km/h (1 Bft)
04.05.2026 17:19 23,6 °C 38 % 1008,8 hPa 0,0 l/m² 0,3 km/h (0 Bft) N 355 ° 8,4 °C 23,6 °C 1,6 km/h (1 Bft)
04.05.2026 17:18 23,6 °C 39 % 1008,8 hPa 0,0 l/m² 2,1 km/h (1 Bft) O 88 ° 8,8 °C 23,6 °C 4,8 km/h (1 Bft)
04.05.2026 17:17 23,6 °C 38 % 1008,7 hPa 0,0 l/m² 3,4 km/h (1 Bft) NO 47 ° 8,4 °C 23,6 °C 6,4 km/h (2 Bft)
04.05.2026 17:16 23,6 °C 39 % 1008,8 hPa 0,0 l/m² 3,2 km/h (1 Bft) S-SO 147 ° 8,8 °C 23,6 °C 6,4 km/h (2 Bft)
04.05.2026 17:15 23,6 °C 39 % 1008,8 hPa 0,0 l/m² 1,3 km/h (1 Bft) O 89 ° 8,8 °C 23,6 °C 3,2 km/h (1 Bft)
04.05.2026 17:14 23,6 °C 38 % 1008,8 hPa 0,0 l/m² 2,0 km/h (1 Bft) O 90 ° 8,4 °C 23,6 °C 3,2 km/h (1 Bft)
04.05.2026 17:13 23,7 °C 39 % 1008,8 hPa 0,0 l/m² 2,3 km/h (1 Bft) O 83 ° 8,9 °C 23,7 °C 6,4 km/h (2 Bft)
04.05.2026 17:12 23,7 °C 39 % 1008,8 hPa 0,0 l/m² 0,5 km/h (0 Bft) O-NO 76 ° 8,9 °C 23,7 °C 1,6 km/h (1 Bft)
04.05.2026 17:11 23,6 °C 40 % 1008,8 hPa 0,0 l/m² 0,0 km/h (0 Bft) O-NO 76 ° 9,2 °C 23,6 °C 0,0 km/h (0 Bft)
04.05.2026 17:10 23,6 °C 41 % 1008,9 hPa 0,0 l/m² 0,9 km/h (0 Bft) O-NO 76 ° 9,6 °C 23,6 °C 3,2 km/h (1 Bft)
04.05.2026 17:09 23,5 °C 42 % 1008,8 hPa 0,0 l/m² 2,7 km/h (1 Bft) O 100 ° 9,8 °C 23,5 °C 4,8 km/h (1 Bft)
04.05.2026 17:08 23,4 °C 40 % 1008,8 hPa 0,0 l/m² 1,4 km/h (1 Bft) W 269 ° 9,0 °C 23,4 °C 3,2 km/h (1 Bft)
04.05.2026 17:07 23,3 °C 39 % 1008,9 hPa 0,0 l/m² 0,9 km/h (0 Bft) W 273 ° 8,6 °C 23,3 °C 3,2 km/h (1 Bft)
04.05.2026 17:06 23,3 °C 38 % 1008,9 hPa 0,0 l/m² 3,2 km/h (1 Bft) W 273 ° 8,2 °C 23,3 °C 4,8 km/h (1 Bft)
04.05.2026 17:05 23,3 °C 40 % 1008,9 hPa 0,0 l/m² 2,0 km/h (1 Bft) W-SW 255 ° 8,9 °C 23,3 °C 4,8 km/h (1 Bft)
04.05.2026 17:04 23,2 °C 39 % 1008,9 hPa 0,0 l/m² 0,7 km/h (0 Bft) SW 235 ° 8,5 °C 23,2 °C 3,2 km/h (1 Bft)
04.05.2026 17:03 23,3 °C 39 % 1008,9 hPa 0,0 l/m² 0,9 km/h (0 Bft) SW 229 ° 8,6 °C 23,3 °C 1,6 km/h (1 Bft)
04.05.2026 17:02 23,3 °C 37 % 1008,9 hPa 0,0 l/m² 1,8 km/h (1 Bft) SW 229 ° 7,8 °C 23,3 °C 3,2 km/h (1 Bft)
04.05.2026 17:01 23,3 °C 39 % 1008,9 hPa 0,0 l/m² 1,1 km/h (1 Bft) SW 234 ° 8,6 °C 23,3 °C 3,2 km/h (1 Bft)
04.05.2026 17:00 23,3 °C 39 % 1008,9 hPa 0,0 l/m² 0,1 km/h (0 Bft) NW 319 ° 8,6 °C 23,3 °C 1,6 km/h (1 Bft)
04.05.2026 16:59 23,2 °C 40 % 1008,9 hPa 0,0 l/m² 0,1 km/h (0 Bft) NW 319 ° 8,8 °C 23,2 °C 1,6 km/h (1 Bft)
04.05.2026 16:58 23,0 °C 42 % 1009,0 hPa 0,0 l/m² 0,5 km/h (0 Bft) W-NW 298 ° 9,4 °C 23,0 °C 1,6 km/h (1 Bft)
04.05.2026 16:57 23,0 °C 38 % 1008,9 hPa 0,0 l/m² 0,0 km/h (0 Bft) NW 322 ° 7,9 °C 23,0 °C 0,0 km/h (0 Bft)
04.05.2026 16:56 23,0 °C 37 % 1009,0 hPa 0,0 l/m² 0,0 km/h (0 Bft) NW 322 ° 7,5 °C 23,0 °C 0,0 km/h (0 Bft)
04.05.2026 16:55 23,1 °C 37 % 1009,0 hPa 0,0 l/m² 0,4 km/h (0 Bft) NW 322 ° 7,6 °C 23,1 °C 1,6 km/h (1 Bft)
04.05.2026 16:54 23,0 °C 37 % 1009,0 hPa 0,0 l/m² 0,3 km/h (0 Bft) N 349 ° 7,5 °C 23,0 °C 1,6 km/h (1 Bft)
04.05.2026 16:53 23,0 °C 38 % 1009,0 hPa 0,0 l/m² 0,5 km/h (0 Bft) N 349 ° 7,9 °C 23,0 °C 1,6 km/h (1 Bft)
04.05.2026 16:52 22,9 °C 41 % 1009,0 hPa 0,0 l/m² 0,3 km/h (0 Bft) W 278 ° 8,9 °C 22,9 °C 1,6 km/h (1 Bft)
04.05.2026 16:51 22,8 °C 41 % 1009,0 hPa 0,0 l/m² 0,4 km/h (0 Bft) W 278 ° 8,9 °C 22,8 °C 1,6 km/h (1 Bft)
04.05.2026 16:50 22,8 °C 42 % 1009,0 hPa 0,0 l/m² 1,1 km/h (1 Bft) W 278 ° 9,2 °C 22,8 °C 3,2 km/h (1 Bft)
04.05.2026 16:49 22,8 °C 42 % 1009,0 hPa 0,0 l/m² 0,9 km/h (0 Bft) W 278 ° 9,2 °C 22,8 °C 1,6 km/h (1 Bft)
04.05.2026 16:48 22,8 °C 39 % 1009,1 hPa 0,0 l/m² 3,0 km/h (1 Bft) W 278 ° 8,1 °C 22,8 °C 4,8 km/h (1 Bft)
04.05.2026 16:47 22,8 °C 38 % 1009,1 hPa 0,0 l/m² 3,3 km/h (1 Bft) W-SW 251 ° 7,7 °C 22,8 °C 4,8 km/h (1 Bft)
04.05.2026 16:46 22,9 °C 38 % 1009,0 hPa 0,0 l/m² 7,4 km/h (2 Bft) W 276 ° 7,8 °C 22,6 °C 9,7 km/h (2 Bft)
04.05.2026 16:45 22,9 °C 38 % 1009,2 hPa 0,0 l/m² 7,9 km/h (2 Bft) W 279 ° 7,8 °C 22,4 °C 9,7 km/h (2 Bft)
04.05.2026 16:44 23,0 °C 38 % 1009,2 hPa 0,0 l/m² 7,2 km/h (2 Bft) W 275 ° 7,9 °C 22,7 °C 11,3 km/h (2 Bft)
04.05.2026 16:43 22,9 °C 41 % 1009,2 hPa 0,0 l/m² 2,3 km/h (1 Bft) W-NW 300 ° 8,9 °C 22,9 °C 6,4 km/h (2 Bft)
04.05.2026 16:42 22,9 °C 39 % 1009,2 hPa 0,0 l/m² 1,3 km/h (1 Bft) W-SW 257 ° 8,2 °C 22,9 °C 3,2 km/h (1 Bft)
04.05.2026 16:41 22,9 °C 40 % 1009,2 hPa 0,0 l/m² 0,7 km/h (0 Bft) W-SW 240 ° 8,6 °C 22,9 °C 1,6 km/h (1 Bft)
04.05.2026 16:40 22,9 °C 40 % 1009,2 hPa 0,0 l/m² 1,0 km/h (0 Bft) W-SW 240 ° 8,6 °C 22,9 °C 3,2 km/h (1 Bft)
04.05.2026 16:39 22,9 °C 39 % 1009,2 hPa 0,0 l/m² 3,6 km/h (1 Bft) W-SW 246 ° 8,2 °C 22,9 °C 4,8 km/h (1 Bft)
04.05.2026 16:38 23,0 °C 38 % 1009,2 hPa 0,0 l/m² 4,4 km/h (1 Bft) W-SW 248 ° 7,9 °C 23,0 °C 6,4 km/h (2 Bft)
04.05.2026 16:37 23,0 °C 40 % 1009,3 hPa 0,0 l/m² 1,8 km/h (1 Bft) W-SW 254 ° 8,7 °C 23,0 °C 4,8 km/h (1 Bft)
04.05.2026 16:36 22,9 °C 41 % 1009,3 hPa 0,0 l/m² 1,7 km/h (1 Bft) NW 313 ° 8,9 °C 22,9 °C 3,2 km/h (1 Bft)
04.05.2026 16:35 22,8 °C 41 % 1009,3 hPa 0,0 l/m² 1,2 km/h (1 Bft) NW 309 ° 8,9 °C 22,8 °C 3,2 km/h (1 Bft)
04.05.2026 16:34 22,7 °C 38 % 1009,3 hPa 0,0 l/m² 4,7 km/h (1 Bft) W-NW 288 ° 7,6 °C 22,7 °C 9,7 km/h (2 Bft)
04.05.2026 16:33 22,7 °C 39 % 1009,2 hPa 0,0 l/m² 3,3 km/h (1 Bft) W 267 ° 8,0 °C 22,7 °C 4,8 km/h (1 Bft)
04.05.2026 16:32 22,7 °C 40 % 1009,3 hPa 0,0 l/m² 2,5 km/h (1 Bft) S-SW 207 ° 8,4 °C 22,7 °C 4,8 km/h (1 Bft)
04.05.2026 16:31 22,7 °C 38 % 1009,3 hPa 0,0 l/m² 1,7 km/h (1 Bft) NW 304 ° 7,6 °C 22,7 °C 4,8 km/h (1 Bft)
04.05.2026 16:30 22,8 °C 39 % 1009,3 hPa 0,0 l/m² 5,7 km/h (2 Bft) W 281 ° 8,1 °C 22,8 °C 8,0 km/h (2 Bft)
04.05.2026 16:29 22,8 °C 38 % 1009,3 hPa 0,0 l/m² 6,0 km/h (2 Bft) SW 229 ° 7,7 °C 22,8 °C 8,0 km/h (2 Bft)
04.05.2026 16:28 22,9 °C 39 % 1009,3 hPa 0,0 l/m² 5,1 km/h (1 Bft) SW 224 ° 8,2 °C 22,9 °C 6,4 km/h (2 Bft)
04.05.2026 16:27 22,9 °C 37 % 1009,3 hPa 0,0 l/m² 2,3 km/h (1 Bft) SW 227 ° 7,4 °C 22,9 °C 4,8 km/h (1 Bft)
04.05.2026 16:26 22,9 °C 37 % 1009,3 hPa 0,0 l/m² 3,3 km/h (1 Bft) S-SW 197 ° 7,4 °C 22,9 °C 6,4 km/h (2 Bft)
04.05.2026 16:25 23,0 °C 39 % 1009,4 hPa 0,0 l/m² 6,4 km/h (2 Bft) SW 223 ° 8,3 °C 23,0 °C 9,7 km/h (2 Bft)
04.05.2026 16:24 23,0 °C 37 % 1009,3 hPa 0,0 l/m² 3,1 km/h (1 Bft) SW 236 ° 7,5 °C 23,0 °C 4,8 km/h (1 Bft)
04.05.2026 16:23 23,0 °C 37 % 1009,3 hPa 0,0 l/m² 5,6 km/h (2 Bft) W 269 ° 7,5 °C 23,0 °C 6,4 km/h (2 Bft)
04.05.2026 16:22 23,1 °C 37 % 1009,4 hPa 0,0 l/m² 5,2 km/h (1 Bft) W 263 ° 7,6 °C 23,1 °C 6,4 km/h (2 Bft)
04.05.2026 16:21 23,2 °C 37 % 1009,3 hPa 0,0 l/m² 5,0 km/h (1 Bft) W 261 ° 7,7 °C 23,2 °C 6,4 km/h (2 Bft)
04.05.2026 16:20 23,2 °C 38 % 1009,4 hPa 0,0 l/m² 0,0 km/h (0 Bft) W-SW 246 ° 8,1 °C 23,2 °C 0,0 km/h (0 Bft)
04.05.2026 16:19 23,3 °C 38 % 1009,4 hPa 0,0 l/m² 0,9 km/h (0 Bft) W-SW 243 ° 8,2 °C 23,3 °C 3,2 km/h (1 Bft)
04.05.2026 16:18 23,4 °C 40 % 1009,4 hPa 0,0 l/m² 2,1 km/h (1 Bft) W-SW 243 ° 9,0 °C 23,4 °C 4,8 km/h (1 Bft)
04.05.2026 16:17 23,3 °C 37 % 1009,4 hPa 0,0 l/m² 0,2 km/h (0 Bft) N 11 ° 7,8 °C 23,3 °C 1,6 km/h (1 Bft)
04.05.2026 16:16 23,3 °C 38 % 1009,4 hPa 0,0 l/m² 1,3 km/h (1 Bft) N 11 ° 8,2 °C 23,3 °C 3,2 km/h (1 Bft)
04.05.2026 16:15 23,3 °C 39 % 1009,4 hPa 0,0 l/m² 0,1 km/h (0 Bft) NW 317 ° 8,6 °C 23,3 °C 1,6 km/h (1 Bft)
04.05.2026 16:14 23,1 °C 39 % 1009,4 hPa 0,0 l/m² 0,9 km/h (0 Bft) NW 317 ° 8,4 °C 23,1 °C 3,2 km/h (1 Bft)
_ Min-Zeit 06:22 18:00 17:17 - 18:01 - - 11:37 06:22 18:01
Minimum _ 12,7 °C 33 % 1008,7 hPa - 0,0 km/h (0 Bft) - - 5,2 °C 12,7 °C 0,0 km/h (0 Bft)
_ Max-Zeit 18:00 06:55 09:24 18:00 14:43 - - 14:51 18:00 12:28
Maximum _ 24,2 °C 75 % 1012,9 hPa 0,0 l/m² 11,0 km/h
W-SW (2 Bft)
- - 10,4 °C 24,1 °C 14,5 km/h
W-NW (3 Bft)
Durchschnitt _ 18,5 °C 52 % 1010,9 hPa #0,0 l/m² 1,1 km/h (1 Bft) W-NW - 7,9 °C 18,5 °C 2,4 km/h (1 Bft)
© Wetterstation Brennberg